Time;durP1;ratioP1;P1;durP2;ratioP2;P2;SDS_P1;SDS_P2;PMS_P1;PMS_P2;Temp;Humidity;BMP_temperature;BMP_pressure;BME280_temperature;BME280_humidity;BME280_pressure;Samples;Min_cycle;Max_cycle;Signal;HPM_P1;HPM_P2
2021/03/08 00:00:33;;;;;;;16.00;8.90;;;2.80;99.90;;;;;;4998064;28;20755;-65
2021/03/08 00:03:00;;;;;;;10.83;9.50;;;2.80;99.90;;;;;;5011689;28;20231;-65
2021/03/08 00:05:26;;;;;;;10.60;7.67;;;2.80;99.90;;;;;;5005727;28;20674;-64
2021/03/08 00:07:52;;;;;;;10.93;8.50;;;2.80;99.90;;;;;;4992525;28;20172;-64
2021/03/08 00:10:19;;;;;;;12.13;8.13;;;2.80;99.90;;;;;;4996068;28;20184;-65
2021/03/08 00:12:47;;;;;;;11.57;7.50;;;2.80;99.90;;;;;;4996761;28;20185;-64
2021/03/08 00:15:13;;;;;;;10.33;7.60;;;2.80;99.90;;;;;;4995313;28;20204;-65
2021/03/08 00:17:40;;;;;;;12.97;8.87;;;2.90;99.90;;;;;;5012277;28;20229;-65
2021/03/08 00:20:09;;;;;;;12.00;8.60;;;2.90;99.90;;;;;;5010094;28;20179;-65
2021/03/08 00:22:36;;;;;;;11.97;8.37;;;2.90;99.90;;;;;;4992457;28;20248;-65
2021/03/08 00:25:04;;;;;;;11.10;8.63;;;3.00;99.90;;;;;;4992299;28;20272;-64
2021/03/08 00:27:30;;;;;;;11.47;8.23;;;3.00;99.90;;;;;;5012192;28;20634;-65
2021/03/08 00:29:55;;;;;;;13.20;9.20;;;3.00;99.90;;;;;;5006638;28;20169;-64
2021/03/08 00:32:21;;;;;;;12.67;8.47;;;3.10;99.90;;;;;;4992363;28;20231;-64
2021/03/08 00:34:47;;;;;;;13.53;9.20;;;3.10;99.90;;;;;;4995145;28;20625;-64
2021/03/08 00:37:13;;;;;;;13.97;8.70;;;3.10;99.90;;;;;;5012010;28;20183;-65
2021/03/08 00:39:38;;;;;;;13.67;8.97;;;3.20;99.90;;;;;;5006855;28;20173;-65
2021/03/08 00:42:04;;;;;;;16.43;9.03;;;3.10;99.90;;;;;;5011475;28;20553;-65
2021/03/08 00:44:30;;;;;;;10.83;7.83;;;3.20;99.90;;;;;;5006707;28;20548;-65
2021/03/08 00:46:55;;;;;;;14.63;9.07;;;3.20;99.90;;;;;;4992127;28;20228;-64
2021/03/08 00:49:21;;;;;;;12.40;8.67;;;3.20;99.90;;;;;;4995182;28;20187;-65
2021/03/08 00:51:47;;;;;;;11.90;8.57;;;3.10;99.90;;;;;;5011689;28;20210;-65
2021/03/08 00:54:12;;;;;;;15.17;9.30;;;3.10;99.90;;;;;;5010113;28;20249;-65
2021/03/08 00:56:38;;;;;;;14.50;9.00;;;3.20;99.90;;;;;;4992074;28;20181;-64
2021/03/08 00:59:03;;;;;;;13.47;9.40;;;3.10;99.90;;;;;;4991981;28;20666;-65
2021/03/08 01:01:29;;;;;;;15.37;9.83;;;3.10;99.90;;;;;;5011263;28;20214;-65
2021/03/08 01:03:55;;;;;;;20.57;11.50;;;3.10;99.90;;;;;;5015122;28;20172;-66
2021/03/08 01:06:20;;;;;;;23.37;13.77;;;3.10;99.90;;;;;;4997689;28;20200;-65
2021/03/08 01:08:46;;;;;;;29.27;15.30;;;3.20;99.90;;;;;;5008995;28;20184;-66
2021/03/08 01:11:11;;;;;;;21.03;12.53;;;3.20;99.90;;;;;;5015013;28;20180;-65
2021/03/08 01:13:37;;;;;;;14.77;9.53;;;3.10;99.90;;;;;;5003605;28;20559;-65
2021/03/08 01:16:03;;;;;;;14.43;9.90;;;3.00;99.90;;;;;;4995531;28;20196;-63
2021/03/08 01:18:29;;;;;;;12.63;9.30;;;3.00;99.90;;;;;;5005124;28;20184;-63
2021/03/08 01:20:55;;;;;;;14.70;9.67;;;2.90;99.90;;;;;;5014369;28;20178;-64
2021/03/08 01:23:20;;;;;;;14.33;9.70;;;3.00;99.90;;;;;;5006465;28;20208;-60
2021/03/08 01:25:46;;;;;;;17.90;10.60;;;2.90;99.90;;;;;;4995096;28;20559;-62
2021/03/08 01:28:11;;;;;;;14.27;10.63;;;3.00;99.90;;;;;;5001286;28;20259;-63
2021/03/08 01:30:41;;;;;;;17.83;10.30;;;3.10;99.90;;;;;;5014615;28;20175;-62
2021/03/08 01:33:07;;;;;;;17.20;11.00;;;3.10;99.90;;;;;;5009168;28;20663;-62
2021/03/08 01:35:34;;;;;;;14.07;10.00;;;3.10;99.90;;;;;;4994788;28;20208;-64
2021/03/08 01:38:00;;;;;;;13.17;9.63;;;3.10;99.90;;;;;;4998322;28;20177;-61
2021/03/08 01:40:27;;;;;;;13.53;8.60;;;3.20;99.90;;;;;;5014070;28;20301;-64
2021/03/08 01:42:54;;;;;;;16.17;9.23;;;3.10;99.90;;;;;;5004053;28;20213;-63
2021/03/08 01:45:21;;;;;;;17.57;10.20;;;3.10;99.90;;;;;;4994772;28;20275;-64
2021/03/08 01:47:48;;;;;;;16.63;10.67;;;3.10;99.90;;;;;;5002963;28;20191;-62
2021/03/08 01:50:42;;;;;;;17.53;9.83;;;3.10;99.90;;;;;;5014066;28;20227;-65
2021/03/08 01:53:10;;;;;;;18.97;10.10;;;3.10;99.90;;;;;;4985687;28;20682;-63
2021/03/08 01:55:37;;;;;;;18.27;10.50;;;3.10;99.90;;;;;;4994507;28;20191;-63
2021/03/08 01:58:03;;;;;;;15.90;9.90;;;3.10;99.90;;;;;;5003916;28;20265;-65
2021/03/08 02:00:30;;;;;;;16.00;9.97;;;3.10;99.90;;;;;;5007306;28;20273;-65
2021/03/08 02:02:57;;;;;;;15.90;10.03;;;3.10;99.90;;;;;;4994278;28;20606;-65
2021/03/08 02:05:27;;;;;;;18.67;10.40;;;3.10;99.90;;;;;;4995455;28;20207;-65
2021/03/08 02:07:54;;;;;;;16.30;10.90;;;3.00;99.90;;;;;;5014197;28;20164;-65
2021/03/08 02:10:20;;;;;;;16.00;11.20;;;3.20;99.90;;;;;;5009723;28;20173;-61
2021/03/08 02:12:48;;;;;;;17.70;11.43;;;3.20;99.90;;;;;;4993508;28;20228;-62
2021/03/08 02:15:39;;;;;;;16.03;10.43;;;3.20;99.90;;;;;;4997428;28;20211;-63
2021/03/08 02:18:17;;;;;;;18.27;11.33;;;3.20;99.90;;;;;;5012285;28;20212;-63
2021/03/08 02:21:21;;;;;;;19.87;10.87;;;3.20;99.90;;;;;;5013438;28;20168;-63
2021/03/08 02:23:55;;;;;;;17.67;10.57;;;3.20;99.90;;;;;;4957697;28;20198;-64
2021/03/08 02:26:48;;;;;;;17.13;11.47;;;3.20;99.90;;;;;;4993968;28;20203;-64
2021/03/08 02:29:25;;;;;;;19.00;12.03;;;3.20;99.90;;;;;;5005323;28;20183;-64
2021/03/08 02:31:55;;;;;;;20.20;11.70;;;3.20;99.90;;;;;;5013374;28;20255;-61
2021/03/08 02:34:26;;;;;;;14.83;10.70;;;3.30;99.90;;;;;;5001205;28;20185;-64
2021/03/08 02:37:00;;;;;;;15.53;11.27;;;3.20;99.90;;;;;;5058105;22;20275;-64
2021/03/08 02:39:31;;;;;;;18.93;11.07;;;3.10;99.90;;;;;;5013686;28;20707;-64
2021/03/08 02:42:00;;;;;;;18.73;11.63;;;3.00;99.90;;;;;;4995618;28;20269;-64
2021/03/08 02:44:34;;;;;;;18.07;11.73;;;3.00;99.90;;;;;;5013556;28;20184;-67
2021/03/08 02:47:01;;;;;;;19.73;11.80;;;3.10;99.90;;;;;;5017249;28;20195;-68
2021/03/08 02:49:28;;;;;;;17.37;11.83;;;3.00;99.90;;;;;;5006349;28;20184;-68
2021/03/08 02:51:57;;;;;;;19.57;12.00;;;2.90;99.90;;;;;;4997648;28;20175;-69
2021/03/08 02:54:25;;;;;;;18.60;12.10;;;2.90;99.90;;;;;;4989763;28;20526;-68
2021/03/08 02:56:55;;;;;;;20.07;12.93;;;2.90;99.90;;;;;;5017059;28;20199;-66
2021/03/08 02:59:23;;;;;;;19.37;12.67;;;2.80;99.90;;;;;;5008053;28;20243;-68
2021/03/08 03:01:50;;;;;;;17.83;12.20;;;2.80;99.90;;;;;;4997024;28;20201;-68
2021/03/08 03:04:20;;;;;;;20.63;13.00;;;2.80;99.90;;;;;;4987720;28;20214;-67
2021/03/08 03:06:47;;;;;;;22.67;12.10;;;2.70;99.90;;;;;;5012813;28;20195;-68
2021/03/08 03:09:15;;;;;;;21.77;13.37;;;2.70;99.90;;;;;;4997319;28;20252;-67
2021/03/08 03:11:46;;;;;;;21.17;12.63;;;2.70;99.90;;;;;;4999827;28;20199;-67
2021/03/08 03:14:13;;;;;;;21.83;12.47;;;2.80;99.90;;;;;;4999199;28;20253;-67
2021/03/08 03:16:41;;;;;;;24.13;13.17;;;2.80;99.90;;;;;;5014803;28;20219;-67
2021/03/08 03:19:09;;;;;;;24.33;13.80;;;2.80;99.90;;;;;;4996977;28;20173;-67
2021/03/08 03:21:36;;;;;;;22.90;14.10;;;2.70;99.90;;;;;;4997597;28;20291;-70
2021/03/08 03:24:03;;;;;;;20.67;12.37;;;2.80;99.90;;;;;;5016527;28;20165;-69
2021/03/08 03:26:30;;;;;;;25.17;13.07;;;2.80;99.90;;;;;;4998828;28;20238;-70
2021/03/08 03:28:57;;;;;;;24.40;13.33;;;2.70;99.90;;;;;;4998939;28;20230;-68
2021/03/08 03:31:23;;;;;;;22.53;13.20;;;2.70;99.90;;;;;;5016962;28;20179;-67
2021/03/08 03:33:50;;;;;;;24.53;14.03;;;2.70;99.90;;;;;;4998403;28;20211;-67
2021/03/08 03:36:15;;;;;;;24.43;14.23;;;2.60;99.90;;;;;;5010450;28;20219;-69
2021/03/08 03:38:41;;;;;;;25.40;14.67;;;2.60;99.90;;;;;;5016990;28;20179;-68
2021/03/08 03:41:08;;;;;;;23.47;13.30;;;2.60;99.90;;;;;;5003258;28;20212;-71
2021/03/08 03:43:35;;;;;;;24.17;14.80;;;2.60;99.90;;;;;;4996921;28;20172;-67
2021/03/08 03:46:02;;;;;;;23.67;14.00;;;2.60;99.90;;;;;;5007790;28;20199;-66
2021/03/08 03:48:28;;;;;;;22.50;13.43;;;2.60;99.90;;;;;;5016230;28;20580;-69
2021/03/08 03:50:54;;;;;;;24.23;13.97;;;2.60;99.90;;;;;;5006675;28;20183;-67
2021/03/08 03:53:20;;;;;;;26.40;15.40;;;2.50;99.90;;;;;;4996999;28;20184;-66
2021/03/08 03:55:46;;;;;;;29.07;14.63;;;2.50;99.90;;;;;;4987500;28;20295;-68
2021/03/08 03:58:20;;;;;;;29.30;16.93;;;2.50;99.90;;;;;;5016786;28;20263;-69
2021/03/08 04:00:53;;;;;;;24.60;13.30;;;2.50;99.90;;;;;;4982128;28;20192;-68
2021/03/08 04:03:23;;;;;;;28.07;14.63;;;2.50;99.90;;;;;;4982907;28;20207;-67
2021/03/08 04:05:52;;;;;;;27.10;14.73;;;2.50;99.90;;;;;;5016062;28;20563;-69
2021/03/08 04:08:20;;;;;;;27.10;15.10;;;2.60;99.90;;;;;;4995148;28;20180;-70
2021/03/08 04:10:48;;;;;;;23.87;14.50;;;2.50;99.90;;;;;;4996283;28;20172;-66
2021/03/08 04:13:14;;;;;;;29.93;17.67;;;2.60;99.90;;;;;;4998864;28;20176;-70
2021/03/08 04:15:41;;;;;;;33.03;17.53;;;2.50;99.90;;;;;;5016024;28;20204;-69
2021/03/08 04:18:09;;;;;;;27.43;15.47;;;2.50;99.90;;;;;;5015089;28;20615;-68
2021/03/08 04:20:36;;;;;;;29.37;17.17;;;2.50;99.90;;;;;;4996083;28;20173;-68
2021/03/08 04:23:06;;;;;;;31.80;15.87;;;2.50;99.90;;;;;;4995352;28;20211;-67
2021/03/08 04:25:33;;;;;;;28.20;16.33;;;2.50;99.90;;;;;;4990933;28;20205;-66
2021/03/08 04:28:00;;;;;;;33.73;15.93;;;2.40;99.90;;;;;;5016090;28;20219;-70
2021/03/08 04:30:26;;;;;;;27.60;16.07;;;2.40;99.90;;;;;;4997887;28;20612;-65
2021/03/08 04:32:53;;;;;;;29.40;16.63;;;2.30;99.90;;;;;;4996753;28;20222;-67
2021/03/08 04:35:23;;;;;;;25.70;14.57;;;2.30;99.90;;;;;;5013079;28;20216;-69
2021/03/08 04:37:50;;;;;;;32.83;17.63;;;2.30;99.90;;;;;;5019672;28;20527;-70
2021/03/08 04:40:17;;;;;;;28.90;15.77;;;2.40;99.90;;;;;;5003894;28;20195;-68
2021/03/08 04:42:44;;;;;;;31.10;16.43;;;2.30;99.90;;;;;;5000658;28;20327;-68
2021/03/08 04:45:11;;;;;;;32.87;17.43;;;2.30;99.90;;;;;;5014930;28;20758;-69
2021/03/08 04:47:39;;;;;;;35.33;18.50;;;2.30;99.90;;;;;;5020068;28;20172;-68
2021/03/08 04:50:07;;;;;;;32.70;18.03;;;2.30;99.90;;;;;;5005500;28;20180;-65
2021/03/08 04:52:35;;;;;;;32.10;17.67;;;2.30;99.90;;;;;;4996046;28;20600;-63
2021/03/08 04:55:02;;;;;;;34.03;17.80;;;2.30;99.90;;;;;;5008161;28;20748;-63
2021/03/08 04:57:30;;;;;;;34.73;18.07;;;2.20;99.90;;;;;;5012226;28;20180;-63
2021/03/08 04:59:55;;;;;;;34.37;17.23;;;2.20;99.90;;;;;;4995907;28;20176;-63
2021/03/08 05:02:22;;;;;;;35.33;17.83;;;2.20;99.90;;;;;;4996443;28;20209;-63
2021/03/08 05:04:51;;;;;;;29.37;16.60;;;2.20;99.90;;;;;;5015175;28;20172;-63
2021/03/08 05:07:21;;;;;;;32.43;16.53;;;2.20;99.90;;;;;;5014361;28;20643;-63
2021/03/08 05:09:48;;;;;;;38.20;19.37;;;2.10;99.90;;;;;;4995632;28;20260;-61
2021/03/08 05:12:15;;;;;;;34.63;18.73;;;2.10;99.90;;;;;;4995615;28;20176;-63
2021/03/08 05:14:43;;;;;;;35.63;18.87;;;2.10;99.90;;;;;;5010802;28;20192;-63
2021/03/08 05:17:09;;;;;;;35.47;18.37;;;2.10;99.90;;;;;;4995781;28;20538;-62
2021/03/08 05:19:38;;;;;;;35.97;20.67;;;2.10;99.90;;;;;;5013606;28;20190;-62
2021/03/08 05:22:04;;;;;;;37.73;18.73;;;2.10;99.90;;;;;;5014460;28;20618;-63
2021/03/08 05:24:30;;;;;;;35.83;19.70;;;2.00;99.90;;;;;;4997907;28;20189;-63
2021/03/08 05:26:57;;;;;;;36.00;19.50;;;2.00;99.90;;;;;;4995334;28;20201;-62
2021/03/08 05:29:22;;;;;;;41.47;18.77;;;2.00;99.90;;;;;;5010587;28;20187;-63
2021/03/08 05:31:50;;;;;;;38.23;20.53;;;2.00;99.90;;;;;;5014889;28;20641;-63
2021/03/08 05:34:18;;;;;;;45.33;21.67;;;2.00;99.90;;;;;;5000660;28;20219;-63
2021/03/08 05:36:48;;;;;;;42.90;21.47;;;2.00;99.90;;;;;;4995235;28;20216;-63
2021/03/08 05:39:16;;;;;;;45.60;21.57;;;2.00;99.90;;;;;;5008315;28;20191;-62
2021/03/08 05:42:02;;;;;;;39.93;21.33;;;2.10;99.90;;;;;;5014439;28;20572;-62
2021/03/08 05:44:30;;;;;;;52.30;22.97;;;2.10;99.90;;;;;;5012982;28;20184;-62
2021/03/08 05:47:02;;;;;;;41.77;21.10;;;2.10;99.90;;;;;;5003329;28;20213;-63
2021/03/08 05:49:46;;;;;;;40.77;21.23;;;2.10;99.90;;;;;;4994981;28;20181;-62
2021/03/08 05:52:30;;;;;;;50.33;20.73;;;2.20;99.90;;;;;;5007052;28;20712;-64
2021/03/08 05:55:18;;;;;;;46.40;22.23;;;2.20;99.90;;;;;;5014777;28;20176;-63
2021/03/08 05:57:46;;;;;;;42.67;21.30;;;2.20;99.90;;;;;;4998748;28;20227;-63
2021/03/08 06:00:45;;;;;;;42.57;21.03;;;2.20;99.90;;;;;;5006912;28;20794;-62
2021/03/08 06:04:00;;;;;;;42.07;22.27;;;2.20;99.90;;;;;;5014125;28;20678;-63
2021/03/08 06:07:03;;;;;;;43.77;21.17;;;2.20;99.90;;;;;;4975045;28;20658;-63
2021/03/08 06:09:36;;;;;;;40.13;19.37;;;2.20;99.90;;;;;;4982455;28;20203;-64
2021/03/08 06:12:08;;;;;;;37.33;21.23;;;2.20;99.90;;;;;;5001659;28;20181;-63
2021/03/08 06:14:42;;;;;;;39.87;21.57;;;2.30;99.90;;;;;;5000209;28;20184;-64
2021/03/08 06:17:15;;;;;;;42.20;23.23;;;2.30;99.90;;;;;;5014081;28;20264;-64
2021/03/08 06:19:45;;;;;;;40.20;20.90;;;2.40;99.90;;;;;;5007904;28;20187;-63
2021/03/08 06:22:13;;;;;;;41.27;22.13;;;2.40;99.90;;;;;;4994417;28;20239;-63
2021/03/08 06:24:44;;;;;;;38.27;20.00;;;2.40;99.90;;;;;;4995644;28;20204;-64
2021/03/08 06:27:11;;;;;;;42.57;22.63;;;2.40;99.90;;;;;;4994449;28;20352;-64
2021/03/08 06:29:38;;;;;;;42.17;20.93;;;2.50;99.90;;;;;;4998480;28;20190;-64
2021/03/08 06:32:05;;;;;;;39.53;20.50;;;2.50;99.90;;;;;;5013219;28;20172;-64
2021/03/08 06:34:32;;;;;;;39.83;20.00;;;2.60;99.90;;;;;;5010570;28;20188;-63
2021/03/08 06:37:04;;;;;;;37.63;19.93;;;2.60;99.90;;;;;;4976357;28;20299;-62
2021/03/08 06:39:34;;;;;;;37.03;19.70;;;2.60;99.90;;;;;;4996151;28;20180;-64
2021/03/08 06:42:01;;;;;;;39.70;19.37;;;2.60;99.90;;;;;;5012584;28;20561;-63
2021/03/08 06:44:27;;;;;;;42.33;20.50;;;2.60;99.90;;;;;;4994827;28;20188;-62
2021/03/08 06:46:53;;;;;;;36.57;19.83;;;2.70;99.90;;;;;;4994059;28;20188;-64
2021/03/08 06:49:19;;;;;;;41.10;21.17;;;2.70;99.90;;;;;;5010476;28;20233;-64
2021/03/08 06:52:15;;;;;;;39.37;23.17;;;2.80;99.90;;;;;;5012934;28;20545;-63
2021/03/08 06:54:43;;;;;;;50.30;24.33;;;2.90;99.90;;;;;;4962181;28;20205;-64
2021/03/08 06:57:26;;;;;;;43.83;21.07;;;2.90;99.90;;;;;;4984078;28;20277;-63
2021/03/08 06:59:53;;;;;;;35.47;19.17;;;3.00;99.90;;;;;;5004637;28;20258;-64
2021/03/08 07:02:19;;;;;;;34.30;19.30;;;3.10;99.90;;;;;;4991312;28;20211;-64
2021/03/08 07:04:45;;;;;;;41.73;21.03;;;3.20;99.90;;;;;;4992807;28;20169;-63
2021/03/08 07:07:13;;;;;;;45.20;21.63;;;3.30;99.90;;;;;;5006958;28;20316;-64
2021/03/08 07:09:52;;;;;;;46.77;21.90;;;3.40;99.90;;;;;;5000859;28;20181;-64
2021/03/08 07:12:18;;;;;;;36.33;18.23;;;3.40;99.90;;;;;;4995587;28;20192;-64
2021/03/08 07:14:45;;;;;;;41.53;21.93;;;3.50;99.90;;;;;;4992876;28;20173;-63
2021/03/08 07:17:34;;;;;;;47.77;24.40;;;3.50;99.90;;;;;;4992973;28;20196;-64
2021/03/08 07:20:09;;;;;;;40.23;22.47;;;3.60;99.90;;;;;;4991681;28;20212;-64
2021/03/08 07:22:44;;;;;;;45.03;21.87;;;3.60;99.90;;;;;;4992783;28;20658;-64
2021/03/08 07:25:30;;;;;;;39.93;20.30;;;3.70;99.90;;;;;;4972920;28;20247;-65
2021/03/08 07:27:58;;;;;;;36.57;18.50;;;3.70;99.90;;;;;;4977278;28;20181;-65
2021/03/08 07:30:32;;;;;;;37.63;20.53;;;3.80;99.90;;;;;;5012095;28;20176;-64
2021/03/08 07:33:03;;;;;;;40.13;21.33;;;3.90;99.90;;;;;;5010374;28;20182;-64
2021/03/08 07:35:47;;;;;;;40.60;20.97;;;3.90;99.90;;;;;;4992776;28;20621;-64
2021/03/08 07:38:29;;;;;;;42.53;22.27;;;4.00;99.90;;;;;;5005808;28;20192;-65
2021/03/08 07:41:14;;;;;;;48.17;24.50;;;4.10;99.90;;;;;;5011750;28;20403;-64
2021/03/08 07:43:44;;;;;;;43.30;22.73;;;4.20;99.90;;;;;;4995262;28;20177;-64
2021/03/08 07:46:28;;;;;;;39.03;23.17;;;4.40;99.90;;;;;;4998312;28;20689;-64
2021/03/08 07:48:55;;;;;;;41.17;21.37;;;4.50;99.90;;;;;;5011771;28;20227;-64
2021/03/08 07:51:21;;;;;;;41.50;22.53;;;4.60;99.90;;;;;;4998686;28;20197;-63
2021/03/08 07:53:47;;;;;;;42.07;23.60;;;4.60;99.90;;;;;;4992482;28;20609;-63
2021/03/08 07:56:13;;;;;;;52.13;23.57;;;4.70;99.90;;;;;;5002668;28;20239;-63
2021/03/08 07:58:39;;;;;;;43.33;23.93;;;4.80;99.90;;;;;;5008172;28;20208;-62
2021/03/08 08:01:07;;;;;;;48.67;24.53;;;4.90;99.90;;;;;;4991283;28;20180;-63
2021/03/08 08:03:34;;;;;;;46.20;24.90;;;5.00;99.90;;;;;;4993253;28;20177;-63
2021/03/08 08:06:09;;;;;;;37.73;20.30;;;4.90;99.90;;;;;;4991595;28;20658;-62
2021/03/08 08:08:37;;;;;;;48.87;25.90;;;4.90;99.90;;;;;;4993707;28;20176;-64
2021/03/08 08:11:05;;;;;;;44.20;22.73;;;4.80;99.90;;;;;;5010359;28;20692;-63
2021/03/08 08:13:50;;;;;;;42.80;23.77;;;4.90;99.90;;;;;;5010753;28;20691;-63
2021/03/08 08:16:20;;;;;;;45.27;23.90;;;5.00;99.90;;;;;;4992027;28;20236;-63
2021/03/08 08:18:49;;;;;;;48.97;25.63;;;5.00;99.90;;;;;;4994365;28;20214;-63
2021/03/08 08:21:17;;;;;;;46.10;23.93;;;5.00;99.90;;;;;;4993257;28;20594;-63
2021/03/08 08:23:45;;;;;;;46.40;23.67;;;5.00;99.90;;;;;;5003013;28;20280;-63
2021/03/08 08:26:16;;;;;;;52.13;26.07;;;5.00;99.90;;;;;;4991770;28;20658;-63
2021/03/08 08:28:45;;;;;;;44.13;24.60;;;5.10;99.90;;;;;;4999488;28;20223;-63
2021/03/08 08:31:10;;;;;;;49.93;25.93;;;5.30;99.90;;;;;;4993470;28;20649;-63
2021/03/08 08:33:36;;;;;;;51.13;24.47;;;5.40;99.90;;;;;;4994660;28;20207;-63
2021/03/08 08:36:10;;;;;;;47.63;26.10;;;5.30;99.90;;;;;;4992046;28;20212;-63
2021/03/08 08:39:10;;;;;;;50.37;25.70;;;5.20;99.90;;;;;;5007781;28;20676;-63
2021/03/08 08:41:35;;;;;;;44.87;25.53;;;5.20;99.90;;;;;;5006403;28;20208;-63
2021/03/08 08:44:07;;;;;;;51.07;25.23;;;5.40;99.90;;;;;;4992044;28;20209;-62
2021/03/08 08:46:33;;;;;;;55.33;26.57;;;5.30;99.90;;;;;;4991679;28;20226;-62
2021/03/08 08:49:08;;;;;;;47.90;25.83;;;5.40;99.90;;;;;;5009596;28;20245;-63
2021/03/08 08:51:49;;;;;;;48.37;25.63;;;5.30;99.90;;;;;;5011136;28;20175;-62
2021/03/08 08:54:27;;;;;;;45.17;25.13;;;5.30;99.90;;;;;;5011319;28;20207;-62
2021/03/08 08:56:58;;;;;;;43.67;25.20;;;5.40;99.90;;;;;;5010977;28;20275;-62
2021/03/08 08:59:25;;;;;;;45.43;24.83;;;5.30;99.90;;;;;;4972038;28;20181;-62
2021/03/08 09:02:20;;;;;;;46.93;23.67;;;5.30;99.90;;;;;;5004711;28;20239;-62
2021/03/08 09:04:46;;;;;;;49.03;28.00;;;5.40;99.90;;;;;;5010881;28;20179;-63
2021/03/08 09:07:20;;;;;;;44.43;25.10;;;5.50;99.90;;;;;;4992286;28;20181;-63
2021/03/08 09:09:46;;;;;;;50.37;26.17;;;5.50;99.90;;;;;;4991225;28;20187;-61
2021/03/08 09:12:25;;;;;;;53.57;26.17;;;5.50;99.90;;;;;;4992396;28;20276;-62
2021/03/08 09:15:05;;;;;;;52.13;26.93;;;5.50;99.90;;;;;;4991438;28;20263;-62
2021/03/08 09:17:40;;;;;;;47.40;25.23;;;5.40;99.90;;;;;;5011167;28;20191;-62
2021/03/08 09:20:06;;;;;;;50.07;26.87;;;5.40;99.90;;;;;;5010621;28;20592;-62
2021/03/08 09:22:40;;;;;;;49.73;26.50;;;5.30;99.90;;;;;;4992710;28;20239;-62
2021/03/08 09:25:08;;;;;;;49.87;26.50;;;5.30;99.90;;;;;;5014660;28;20187;-62
2021/03/08 09:27:36;;;;;;;50.33;27.83;;;5.20;99.90;;;;;;4995575;28;20542;-62
2021/03/08 09:30:05;;;;;;;50.00;26.50;;;5.20;99.90;;;;;;5009896;28;20176;-62
2021/03/08 09:32:31;;;;;;;49.60;26.80;;;5.20;99.90;;;;;;5014821;28;20230;-63
2021/03/08 09:35:07;;;;;;;49.07;26.33;;;5.30;99.90;;;;;;5003124;28;20244;-63
2021/03/08 09:37:33;;;;;;;48.70;26.53;;;5.40;99.90;;;;;;4995128;28;20256;-62
2021/03/08 09:40:00;;;;;;;49.57;26.50;;;5.40;99.90;;;;;;5008169;28;20180;-63
2021/03/08 09:42:37;;;;;;;49.67;26.07;;;5.40;99.90;;;;;;5014374;28;20214;-63
2021/03/08 09:45:23;;;;;;;47.30;25.73;;;5.40;99.90;;;;;;5000003;28;20200;-63
2021/03/08 09:47:51;;;;;;;51.93;25.97;;;5.50;99.90;;;;;;4977357;28;20642;-61
2021/03/08 09:50:23;;;;;;;45.50;25.80;;;5.60;99.90;;;;;;5008545;28;20270;-63
2021/03/08 09:52:48;;;;;;;50.07;26.20;;;5.60;99.90;;;;;;5014349;28;20176;-63
2021/03/08 09:55:21;;;;;;;48.03;25.53;;;5.60;99.90;;;;;;4999724;28;20263;-63
2021/03/08 09:57:47;;;;;;;46.77;25.40;;;5.60;99.90;;;;;;5005581;28;20234;-64
2021/03/08 10:00:17;;;;;;;46.87;25.23;;;5.70;99.90;;;;;;5001490;28;20188;-63
2021/03/08 10:02:43;;;;;;;50.17;25.50;;;5.70;99.90;;;;;;5004313;28;20566;-63
2021/03/08 10:05:12;;;;;;;50.53;26.93;;;5.70;99.90;;;;;;5013857;28;20195;-63
2021/03/08 10:07:52;;;;;;;51.17;26.40;;;5.70;99.90;;;;;;5005163;28;20180;-62
2021/03/08 10:10:18;;;;;;;48.53;26.30;;;5.90;99.90;;;;;;4993835;28;20259;-62
2021/03/08 10:12:44;;;;;;;51.93;26.50;;;6.00;99.90;;;;;;4999084;28;20203;-63
2021/03/08 10:15:11;;;;;;;52.27;26.57;;;6.00;99.90;;;;;;5013416;28;20242;-63
2021/03/08 10:17:52;;;;;;;49.57;26.83;;;6.00;99.90;;;;;;5006417;28;20176;-63
2021/03/08 10:20:17;;;;;;;53.50;29.50;;;6.10;99.90;;;;;;4993330;28;20184;-63
2021/03/08 10:22:43;;;;;;;50.83;27.03;;;6.10;99.90;;;;;;5001338;28;20200;-63
2021/03/08 10:25:28;;;;;;;53.50;27.47;;;6.30;99.90;;;;;;5010290;28;20200;-63
2021/03/08 10:27:58;;;;;;;50.37;27.93;;;6.40;99.90;;;;;;5013643;28;20176;-63
2021/03/08 10:30:26;;;;;;;50.43;27.13;;;6.50;99.90;;;;;;5007945;28;20185;-63
2021/03/08 10:32:54;;;;;;;51.60;26.97;;;6.50;99.90;;;;;;4994271;28;20208;-63
2021/03/08 10:35:21;;;;;;;48.83;27.97;;;6.60;99.90;;;;;;4996001;28;20571;-63
2021/03/08 10:37:47;;;;;;;56.20;29.43;;;6.60;99.90;;;;;;5013665;28;20650;-63
2021/03/08 10:40:16;;;;;;;53.00;31.53;;;6.70;99.90;;;;;;5010011;28;20192;-63
2021/03/08 10:42:42;;;;;;;51.07;27.40;;;6.90;99.90;;;;;;4993642;28;20204;-63
2021/03/08 10:45:10;;;;;;;59.40;29.27;;;7.00;99.90;;;;;;4994304;28;20210;-63
2021/03/08 10:47:36;;;;;;;57.17;28.50;;;7.00;99.90;;;;;;5012789;28;20583;-63
2021/03/08 10:50:03;;;;;;;65.20;32.60;;;7.00;99.90;;;;;;5013025;28;20557;-62
2021/03/08 10:52:29;;;;;;;59.70;31.47;;;6.90;99.90;;;;;;5012268;28;20295;-63
2021/03/08 10:54:54;;;;;;;56.90;29.73;;;6.90;99.90;;;;;;4997291;28;20271;-63
2021/03/08 10:57:22;;;;;;;58.17;28.10;;;6.90;99.90;;;;;;4993301;28;20180;-63
2021/03/08 10:59:49;;;;;;;52.77;29.47;;;6.90;99.90;;;;;;5007158;28;20188;-63
2021/03/08 11:02:17;;;;;;;54.70;28.97;;;6.90;99.90;;;;;;5012744;28;20210;-63
2021/03/08 11:04:44;;;;;;;57.10;29.33;;;7.10;99.90;;;;;;4999961;28;20177;-63
2021/03/08 11:07:11;;;;;;;55.13;29.13;;;7.40;99.90;;;;;;4993091;28;20219;-63
2021/03/08 11:09:39;;;;;;;53.67;27.97;;;7.50;99.90;;;;;;5004484;28;20176;-62
2021/03/08 11:12:15;;;;;;;53.77;28.90;;;7.70;99.90;;;;;;5012497;28;20184;-63
2021/03/08 11:14:47;;;;;;;56.03;29.17;;;7.90;99.90;;;;;;5001286;28;20184;-63
2021/03/08 11:17:13;;;;;;;48.53;27.03;;;7.80;99.90;;;;;;4992925;28;20176;-63
2021/03/08 11:19:39;;;;;;;51.43;27.37;;;7.90;99.90;;;;;;5003145;28;20188;-63
2021/03/08 11:22:05;;;;;;;53.33;27.87;;;8.10;99.90;;;;;;5011990;28;20196;-62
2021/03/08 11:24:31;;;;;;;47.17;27.33;;;8.30;99.90;;;;;;5004030;28;20207;-63
2021/03/08 11:27:20;;;;;;;50.90;28.63;;;8.50;99.90;;;;;;4992786;28;20208;-63
2021/03/08 11:30:03;;;;;;;53.13;28.80;;;8.60;99.90;;;;;;5002592;28;20207;-63
2021/03/08 11:32:30;;;;;;;53.60;28.20;;;8.70;99.90;;;;;;5012541;28;20184;-63
2021/03/08 11:34:56;;;;;;;52.53;27.17;;;8.90;99.90;;;;;;5001495;28;20185;-63
2021/03/08 11:37:25;;;;;;;50.00;30.23;;;9.20;99.90;;;;;;4992715;28;20254;-63
2021/03/08 11:39:56;;;;;;;48.47;27.33;;;9.20;99.90;;;;;;5001725;28;20180;-63
2021/03/08 11:42:25;;;;;;;49.00;26.13;;;9.30;99.90;;;;;;5011979;28;20619;-62
2021/03/08 11:44:52;;;;;;;51.73;29.37;;;9.30;99.90;;;;;;5003300;28;20686;-63
2021/03/08 11:47:18;;;;;;;53.47;29.63;;;9.20;99.90;;;;;;4997482;28;20172;-63
2021/03/08 11:49:44;;;;;;;50.50;27.27;;;9.40;99.90;;;;;;5012110;28;20168;-63
2021/03/08 11:52:10;;;;;;;49.00;28.30;;;9.30;99.90;;;;;;5008436;28;20192;-63
2021/03/08 11:54:35;;;;;;;50.73;28.00;;;9.10;99.90;;;;;;4992455;28;20884;-63
2021/03/08 11:57:02;;;;;;;53.03;27.17;;;9.00;99.90;;;;;;4994743;28;20212;-63
2021/03/08 11:59:28;;;;;;;49.07;28.90;;;8.70;99.90;;;;;;5011917;28;20568;-63
2021/03/08 12:01:54;;;;;;;54.67;29.70;;;8.60;99.90;;;;;;5010347;28;20203;-63
2021/03/08 12:04:20;;;;;;;56.73;30.00;;;8.60;99.90;;;;;;4992283;28;20169;-63
2021/03/08 12:06:46;;;;;;;51.77;28.53;;;8.70;99.90;;;;;;4992495;28;20192;-63
2021/03/08 12:09:11;;;;;;;58.93;30.43;;;8.80;99.90;;;;;;4995432;28;20653;-63
2021/03/08 12:11:37;;;;;;;57.87;31.00;;;8.80;99.90;;;;;;4991729;28;20172;-63
2021/03/08 12:14:03;;;;;;;51.93;29.60;;;9.00;99.90;;;;;;4991403;28;20191;-62
2021/03/08 12:16:28;;;;;;;55.47;30.07;;;9.00;99.90;;;;;;4998953;28;20204;-62
2021/03/08 12:18:54;;;;;;;58.77;29.37;;;9.10;99.90;;;;;;4992395;28;20630;-63
2021/03/08 12:21:21;;;;;;;58.03;29.77;;;9.20;99.90;;;;;;5002016;28;20572;-63
2021/03/08 12:23:47;;;;;;;51.70;27.37;;;9.40;99.90;;;;;;5011800;28;20222;-63
2021/03/08 12:26:14;;;;;;;57.60;29.07;;;9.70;99.90;;;;;;5002213;28;20678;-63
2021/03/08 12:28:40;;;;;;;49.10;27.80;;;9.80;99.90;;;;;;4992462;28;20682;-63
2021/03/08 12:31:05;;;;;;;51.40;29.20;;;9.90;99.90;;;;;;4998889;28;20199;-63
2021/03/08 12:33:34;;;;;;;45.50;25.77;;;10.20;99.90;;;;;;4994356;28;20657;-63
2021/03/08 12:36:02;;;;;;;41.87;26.97;;;10.20;99.90;;;;;;5005139;28;20243;-63
2021/03/08 12:38:28;;;;;;;46.10;25.73;;;10.10;99.90;;;;;;4991850;28;20251;-63
2021/03/08 12:40:54;;;;;;;46.20;26.60;;;10.00;99.90;;;;;;4995934;28;20271;-63
2021/03/08 12:43:20;;;;;;;46.00;27.67;;;10.00;99.90;;;;;;5009661;28;20207;-63
2021/03/08 12:45:46;;;;;;;49.33;28.30;;;10.10;99.90;;;;;;4991984;28;20283;-63
2021/03/08 12:48:11;;;;;;;51.83;29.23;;;10.00;99.90;;;;;;4991890;28;20211;-63
2021/03/08 12:50:37;;;;;;;54.80;28.97;;;10.00;99.90;;;;;;5010335;28;20172;-63